Time;durP1;ratioP1;P1;durP2;ratioP2;P2;SDS_P1;SDS_P2;PMS_P1;PMS_P2;Temp;Humidity;BMP_temperature;BMP_pressure;BME280_temperature;BME280_humidity;BME280_pressure;Samples;Min_cycle;Max_cycle;Signal;HPM_P1;HPM_P2
2023/08/31 00:00:13;;;;;;;;;17.20;15.80;;;;;17.42;63.87;98722.00;5109227;28;8855;-77
2023/08/31 00:03:04;;;;;;;;;17.20;14.60;;;;;17.46;63.80;98718.19;5094052;28;8901;-79
2023/08/31 00:05:33;;;;;;;;;25.60;18.40;;;;;17.51;63.48;98716.13;5109083;28;9636;-78
2023/08/31 00:08:02;;;;;;;;;17.20;16.80;;;;;17.51;63.82;98716.13;5109066;28;8874;-79
2023/08/31 00:10:31;;;;;;;;;17.00;16.40;;;;;17.57;63.28;98722.81;5108844;28;8870;-79
2023/08/31 00:13:00;;;;;;;;;13.20;13.20;;;;;17.59;63.46;98715.63;5088822;28;8855;-79
2023/08/31 00:15:32;;;;;;;;;18.40;17.80;;;;;17.60;63.54;98711.16;5040802;28;9602;-78
2023/08/31 00:18:02;;;;;;;;;20.00;20.00;;;;;17.34;64.00;98714.50;5109254;28;9758;-78
2023/08/31 00:20:33;;;;;;;;;20.60;20.40;;;;;17.26;64.20;98716.78;5108837;28;9015;-77
2023/08/31 00:23:03;;;;;;;;;20.60;19.60;;;;;17.36;63.97;98722.38;5108589;28;8855;-78
2023/08/31 00:25:32;;;;;;;;;17.40;16.40;;;;;17.28;64.35;98717.53;5109020;28;8844;-79
2023/08/31 00:28:04;;;;;;;;;23.00;21.80;;;;;17.39;64.43;98728.34;5108741;28;8847;-79
2023/08/31 00:30:35;;;;;;;;;19.80;18.60;;;;;17.23;64.81;98726.69;5092158;28;8877;-78
2023/08/31 00:33:04;;;;;;;;;17.60;17.40;;;;;17.34;64.44;98734.88;5070420;28;8850;-80
2023/08/31 00:35:35;;;;;;;;;18.60;17.80;;;;;17.30;65.28;98728.91;5070417;28;8841;-78
2023/08/31 00:38:04;;;;;;;;;23.80;21.20;;;;;17.34;64.36;98721.59;5054510;28;8866;-78
2023/08/31 00:40:35;;;;;;;;;19.25;19.25;;;;;17.17;64.49;98717.31;5056141;28;9576;-77
2023/08/31 00:43:04;;;;;;;;;20.80;19.40;;;;;17.23;64.47;98724.03;5105904;28;8850;-81
2023/08/31 00:45:33;;;;;;;;;19.00;19.00;;;;;17.09;64.96;98706.31;5083863;28;9611;-79
2023/08/31 00:48:04;;;;;;;;;16.80;16.80;;;;;17.20;64.57;98706.50;5088595;28;8991;-77
2023/08/31 00:50:33;;;;;;;;;19.60;18.20;;;;;17.14;64.69;98714.84;5065515;28;8844;-79
2023/08/31 00:53:03;;;;;;;;;23.00;20.40;;;;;17.12;64.49;98716.75;5008754;28;8864;-79
2023/08/31 00:55:33;;;;;;;;;20.00;20.00;;;;;17.08;64.39;98721.41;5009139;28;8865;-80
2023/08/31 00:58:02;;;;;;;;;20.80;20.80;;;;;17.25;64.22;98727.44;5028267;28;8857;-79
2023/08/31 01:00:41;;;;;;;;;22.00;21.80;;;;;17.23;64.21;98724.91;5012864;28;8869;-80
2023/08/31 01:03:20;;;;;;;;;19.60;19.40;;;;;17.33;64.24;98728.72;4965085;28;8982;-77
2023/08/31 01:05:57;;;;;;;;;20.00;20.00;;;;;17.41;64.08;98724.75;5029269;28;8899;-80
2023/08/31 01:08:34;;;;;;;;;21.40;18.40;;;;;17.47;63.63;98725.19;4996483;28;8923;-81
2023/08/31 01:11:16;;;;;;;;;19.60;19.60;;;;;17.54;63.52;98715.91;5012565;28;8872;-77
2023/08/31 01:13:49;;;;;;;;;21.40;18.00;;;;;17.54;63.15;98717.72;4996317;28;9713;-80
2023/08/31 01:16:19;;;;;;;;;22.80;21.80;;;;;17.56;63.09;98721.13;5012987;28;8884;-80
2023/08/31 01:18:50;;;;;;;;;18.60;18.40;;;;;17.49;62.98;98727.78;5016726;28;8841;-80
2023/08/31 01:21:25;;;;;;;;;19.60;19.40;;;;;17.55;63.36;98728.25;5024632;28;8972;-78
2023/08/31 01:23:56;;;;;;;;;23.60;22.20;;;;;17.56;63.17;98729.09;5059681;28;8869;-79
2023/08/31 01:26:26;;;;;;;;;21.60;20.60;;;;;17.44;63.67;98725.41;5092511;28;8836;-80
2023/08/31 01:28:56;;;;;;;;;18.00;17.60;;;;;17.53;62.99;98730.16;5075203;28;9667;-79
2023/08/31 01:31:25;;;;;;;;;20.40;19.60;;;;;17.56;62.44;98719.31;5029785;28;8888;-80
2023/08/31 01:33:54;;;;;;;;;20.40;19.80;;;;;17.60;62.79;98725.28;5043362;28;8931;-81
2023/08/31 01:36:29;;;;;;;;;18.60;17.80;;;;;17.52;63.45;98728.44;5051517;28;8926;-79
2023/08/31 01:39:05;;;;;;;;;19.60;18.80;;;;;17.62;63.18;98722.53;5000689;28;8876;-82
2023/08/31 01:41:36;;;;;;;;;22.60;19.00;;;;;17.58;62.90;98722.72;5029131;28;8970;-82
2023/08/31 01:44:11;;;;;;;;;21.60;21.40;;;;;17.57;62.41;98721.03;5028444;28;8894;-80
2023/08/31 01:46:40;;;;;;;;;19.20;19.20;;;;;17.54;62.59;98720.38;5028495;28;8877;-80
2023/08/31 01:49:10;;;;;;;;;20.40;17.20;;;;;17.57;62.68;98717.50;5011919;28;8883;-79
2023/08/31 01:51:40;;;;;;;;;22.40;22.40;;;;;17.58;62.50;98724.53;5015304;28;8843;-81
2023/08/31 01:54:10;;;;;;;;;20.00;19.40;;;;;17.53;63.14;98730.16;5048334;28;8846;-81
2023/08/31 01:56:40;;;;;;;;;22.60;21.20;;;;;17.57;62.86;98736.09;4983632;28;8874;-79
2023/08/31 01:59:08;;;;;;;;;21.40;20.40;;;;;17.62;62.64;98731.38;5047982;28;8858;-79
2023/08/31 02:01:37;;;;;;;;;20.00;20.00;;;;;17.66;62.10;98735.53;5031425;28;8882;-80
2023/08/31 02:04:06;;;;;;;;;23.80;21.80;;;;;17.71;61.88;98736.09;5031702;28;8907;-80
2023/08/31 02:06:35;;;;;;;;;22.80;22.60;;;;;17.64;62.25;98737.44;5031790;28;8865;-80
2023/08/31 02:09:05;;;;;;;;;18.20;17.80;;;;;17.67;62.43;98741.72;5060332;28;8976;-79
2023/08/31 02:11:37;;;;;;;;;20.20;19.00;;;;;17.67;61.84;98742.56;5090833;28;8857;-80
2023/08/31 02:14:07;;;;;;;;;18.20;16.80;;;;;17.63;62.26;98741.06;5072686;28;8988;-79
2023/08/31 02:16:36;;;;;;;;;17.80;16.80;;;;;17.63;62.04;98738.41;5090234;28;8826;-79
2023/08/31 02:19:05;;;;;;;;;19.40;18.40;;;;;17.64;62.03;98747.22;5072789;28;8865;-79
2023/08/31 02:21:34;;;;;;;;;21.00;19.40;;;;;17.67;61.86;98747.03;5072259;28;8865;-80
2023/08/31 02:24:03;;;;;;;;;24.00;22.20;;;;;17.68;61.54;98749.56;5097737;28;8834;-80
2023/08/31 02:26:37;;;;;;;;;18.20;17.20;;;;;17.70;61.85;98753.00;5111849;28;8836;-79
2023/08/31 02:29:05;;;;;;;;;19.60;17.60;;;;;17.69;61.54;98756.59;5107422;28;8958;-83
2023/08/31 02:31:34;;;;;;;;;21.20;20.40;;;;;17.73;61.38;98766.09;5130945;28;8852;-79
2023/08/31 02:34:03;;;;;;;;;20.40;20.00;;;;;17.74;61.40;98758.97;5096174;28;8982;-81
2023/08/31 02:36:32;;;;;;;;;17.80;17.80;;;;;17.73;61.38;98754.63;5092695;28;8831;-79
2023/08/31 02:39:01;;;;;;;;;18.80;18.80;;;;;17.72;61.24;98759.09;5088088;28;8903;-81
2023/08/31 02:41:30;;;;;;;;;18.20;18.20;;;;;17.74;61.24;98753.66;5037833;28;8864;-82
2023/08/31 02:43:59;;;;;;;;;26.60;22.40;;;;;17.68;61.07;98749.56;5090250;28;8979;-80
2023/08/31 02:46:29;;;;;;;;;22.80;21.40;;;;;17.62;61.08;98754.44;5072501;28;8850;-80
2023/08/31 02:48:57;;;;;;;;;21.80;20.20;;;;;17.56;61.11;98756.50;5074215;28;8870;-79
2023/08/31 02:51:26;;;;;;;;;22.40;21.20;;;;;17.39;61.12;98749.59;5072178;28;8838;-81
2023/08/31 02:53:55;;;;;;;;;22.20;19.80;;;;;17.14;62.00;98760.84;5056960;28;8863;-80
2023/08/31 02:56:24;;;;;;;;;20.60;20.60;;;;;17.13;62.08;98755.63;5071750;28;8946;-79
2023/08/31 02:58:53;;;;;;;;;19.00;19.00;;;;;17.15;62.08;98753.72;5090128;28;8952;-81
2023/08/31 03:01:24;;;;;;;;;21.40;21.20;;;;;17.11;62.23;98763.69;5071226;28;8906;-82
2023/08/31 03:03:53;;;;;;;;;19.00;17.20;;;;;17.12;62.53;98767.22;5083326;28;8889;-79
2023/08/31 03:06:23;;;;;;;;;21.40;19.80;;;;;17.15;62.08;98767.84;5046465;28;8853;-81
2023/08/31 03:08:52;;;;;;;;;22.00;21.60;;;;;17.27;61.96;98773.41;5014327;28;8849;-81
2023/08/31 03:11:21;;;;;;;;;25.40;19.20;;;;;17.31;61.66;98775.78;5045493;28;8845;-79
2023/08/31 03:13:49;;;;;;;;;20.00;17.40;;;;;17.37;61.29;98782.53;5030887;28;8961;-78
2023/08/31 03:16:18;;;;;;;;;18.00;17.40;;;;;17.40;61.12;98777.03;5030960;28;8885;-78
2023/08/31 03:18:48;;;;;;;;;21.20;20.20;;;;;17.42;61.18;98787.53;5034153;28;8938;-78
2023/08/31 03:21:19;;;;;;;;;37.75;35.25;;;;;17.38;61.36;98786.88;5034809;28;8844;-80
2023/08/31 03:23:48;;;;;;;;;22.20;20.20;;;;;17.33;61.04;98786.31;5024428;28;8864;-79
2023/08/31 03:26:17;;;;;;;;;20.20;19.80;;;;;17.35;61.23;98779.97;4994821;28;8864;-81
2023/08/31 03:28:46;;;;;;;;;13.20;12.60;;;;;17.38;61.26;98779.78;4987610;28;8853;-81
2023/08/31 03:31:16;;;;;;;;;18.00;18.00;;;;;17.43;61.33;98779.50;4971412;28;9040;-80
2023/08/31 03:33:44;;;;;;;;;20.60;20.60;;;;;17.46;61.14;98778.47;4982571;28;8850;-80
2023/08/31 03:36:15;;;;;;;;;17.00;14.80;;;;;17.49;61.18;98787.06;5007491;28;8966;-83
2023/08/31 03:38:45;;;;;;;;;17.00;17.00;;;;;17.51;60.78;98789.63;5045581;28;8866;-81
2023/08/31 03:41:15;;;;;;;;;19.80;18.80;;;;;17.48;60.70;98777.41;5047024;28;8878;-80
2023/08/31 03:43:44;;;;;;;;;20.80;20.60;;;;;17.45;60.80;98784.72;5009417;28;8880;-80
2023/08/31 03:46:13;;;;;;;;;18.80;16.40;;;;;17.38;60.76;98787.75;5010705;28;8841;-80
2023/08/31 03:48:41;;;;;;;;;14.40;14.40;;;;;17.39;60.88;98786.78;5010421;28;8871;-80
2023/08/31 03:51:11;;;;;;;;;15.80;15.00;;;;;17.45;60.48;98792.69;5010283;28;8857;-79
2023/08/31 03:53:43;;;;;;;;;19.20;18.40;;;;;17.45;60.46;98793.53;5026373;28;8903;-84
2023/08/31 03:56:13;;;;;;;;;39.50;36.00;;;;;17.47;60.41;98791.63;5010087;28;8957;-82
2023/08/31 03:58:42;;;;;;;;;28.80;25.20;;;;;17.48;60.76;98798.66;5070279;28;8902;-81
2023/08/31 04:01:12;;;;;;;;;15.80;15.80;;;;;17.48;60.64;98806.63;5101112;28;9696;-80
2023/08/31 04:03:43;;;;;;;;;18.00;17.80;;;;;17.51;60.56;98806.47;5081289;28;8852;-79
2023/08/31 04:06:12;;;;;;;;;17.00;15.00;;;;;17.51;60.80;98801.16;5093680;28;8836;-79
2023/08/31 04:08:43;;;;;;;;;18.60;16.60;;;;;17.53;60.38;98809.00;5109573;28;8832;-81
2023/08/31 04:11:12;;;;;;;;;18.00;17.00;;;;;17.34;60.84;98803.97;5091683;28;8856;-79
2023/08/31 04:13:40;;;;;;;;;17.20;16.00;;;;;17.27;60.89;98803.50;5091728;28;8879;-79
2023/08/31 04:16:10;;;;;;;;;16.60;15.60;;;;;17.14;61.22;98803.34;5110133;28;8919;-79
2023/08/31 04:18:39;;;;;;;;;21.20;19.60;;;;;16.92;61.99;98800.25;5108019;28;8857;-79
2023/08/31 04:21:09;;;;;;;;;70.00;57.00;;;;;16.97;61.56;98800.84;5090565;28;8830;-79
2023/08/31 04:23:38;;;;;;;;;13.00;12.60;;;;;16.82;61.97;98802.59;5088998;28;9382;-81
2023/08/31 04:26:12;;;;;;;;;15.00;13.40;;;;;16.79;62.27;98802.78;5088449;28;8883;-80
2023/08/31 04:28:42;;;;;;;;;21.20;18.80;;;;;16.45;63.98;98811.84;5088384;28;8861;-81
2023/08/31 04:31:11;;;;;;;;;25.60;22.80;;;;;16.52;64.44;98810.53;5053400;28;8837;-82
2023/08/31 04:33:40;;;;;;;;;24.60;24.20;;;;;16.69;63.54;98810.41;5107142;28;8856;-80
2023/08/31 04:36:09;;;;;;;;;22.00;21.60;;;;;16.85;63.41;98812.16;5115519;28;8862;-79
2023/08/31 04:38:38;;;;;;;;;23.60;23.60;;;;;17.03;62.89;98815.56;5113470;28;8862;-79
2023/08/31 04:41:09;;;;;;;;;15.80;14.80;;;;;17.05;62.67;98813.66;5113532;28;8843;-83
2023/08/31 04:43:39;;;;;;;;;21.60;18.80;;;;;17.25;62.26;98817.75;5086364;28;8838;-80
2023/08/31 04:46:08;;;;;;;;;38.50;35.00;;;;;17.32;61.50;98816.47;5092724;28;8846;-80
2023/08/31 04:48:37;;;;;;;;;106.25;101.75;;;;;17.38;61.13;98814.31;5093248;28;8853;-80
2023/08/31 04:51:06;;;;;;;;;24.00;21.25;;;;;17.44;61.40;98821.06;5077082;28;12021;-81
2023/08/31 04:53:35;;;;;;;;;25.00;22.60;;;;;17.60;61.39;98826.28;5043774;28;8922;-79
2023/08/31 04:56:04;;;;;;;;;20.00;20.00;;;;;17.64;60.71;98827.78;5112065;28;8854;-80
2023/08/31 04:58:32;;;;;;;;;21.40;20.40;;;;;17.80;60.72;98834.81;5077094;28;8844;-80
2023/08/31 05:01:03;;;;;;;;;23.60;23.60;;;;;17.94;60.43;98830.34;5111605;28;8848;-79
2023/08/31 05:03:32;;;;;;;;;21.00;20.20;;;;;18.11;59.55;98828.47;5094750;28;8852;-80
2023/08/31 05:06:04;;;;;;;;;19.60;17.40;;;;;18.22;58.79;98838.44;5096092;28;8973;-79
2023/08/31 05:08:33;;;;;;;;;18.20;16.20;;;;;18.25;58.85;98843.53;5043444;28;8858;-83
2023/08/31 05:11:02;;;;;;;;;14.60;14.60;;;;;18.34;58.19;98840.28;5103579;28;8857;-79
2023/08/31 05:13:31;;;;;;;;;13.80;13.40;;;;;18.44;57.67;98845.84;5095053;28;8838;-81
2023/08/31 05:16:00;;;;;;;;;12.20;12.20;;;;;18.52;57.51;98851.56;5031351;28;8854;-79
2023/08/31 05:18:30;;;;;;;;;15.80;14.20;;;;;18.62;57.25;98843.81;5105334;28;8852;-81
2023/08/31 05:20:59;;;;;;;;;14.80;14.80;;;;;18.70;56.99;98846.81;5104908;28;8915;-81
2023/08/31 05:23:28;;;;;;;;;14.40;14.00;;;;;18.77;56.55;98852.59;5092078;28;8854;-80
2023/08/31 05:25:57;;;;;;;;;16.60;15.60;;;;;18.88;56.63;98866.94;5055019;28;8938;-84
2023/08/31 05:28:26;;;;;;;;;13.20;11.80;;;;;19.00;56.37;98872.41;5056555;28;8850;-80
2023/08/31 05:30:58;;;;;;;;;16.60;16.40;;;;;19.11;55.48;98875.22;5095097;28;8866;-83
2023/08/31 05:33:28;;;;;;;;;12.60;12.60;;;;;19.15;55.01;98882.03;5086962;28;8868;-81
2023/08/31 05:35:58;;;;;;;;;14.60;13.80;;;;;19.27;55.58;98875.03;5104693;28;8828;-80
2023/08/31 05:38:27;;;;;;;;;14.60;14.60;;;;;19.34;54.97;98873.66;5090658;28;8842;-70
2023/08/31 05:41:05;;;;;;;;;13.40;13.40;;;;;19.56;54.11;98883.72;5102042;28;8847;-71
2023/08/31 05:43:35;;;;;;;;;18.40;16.40;;;;;19.60;54.67;98881.72;5040655;28;8886;-69
2023/08/31 05:46:04;;;;;;;;;19.00;18.20;;;;;19.48;54.71;98883.34;5110737;28;8885;-70
2023/08/31 05:48:33;;;;;;;;;27.20;25.40;;;;;19.39;55.58;98884.00;5067246;28;8964;-69
2023/08/31 05:51:03;;;;;;;;;22.00;21.40;;;;;19.11;56.04;98894.69;5089956;28;8834;-70
2023/08/31 05:53:33;;;;;;;;;19.80;19.20;;;;;19.00;56.58;98888.41;5097325;28;9621;-70
2023/08/31 05:56:04;;;;;;;;;18.80;18.40;;;;;19.28;56.18;98893.56;5091570;28;8877;-70
2023/08/31 05:58:35;;;;;;;;;12.80;11.20;;;;;19.55;55.64;98902.50;5093552;28;8867;-80
2023/08/31 06:01:05;;;;;;;;;28.20;26.00;;;;;19.64;55.29;98910.72;5058960;28;8870;-77
2023/08/31 06:03:34;;;;;;;;;18.40;18.00;;;;;19.62;54.81;98917.13;5058654;28;8883;-76
2023/08/31 06:06:04;;;;;;;;;27.80;22.20;;;;;19.84;54.55;98908.47;5115999;28;8848;-77
2023/08/31 06:08:33;;;;;;;;;19.40;18.20;;;;;19.03;55.51;98918.34;5123594;28;8887;-76
2023/08/31 06:11:02;;;;;;;;;19.60;19.60;;;;;18.61;56.97;98921.94;5102297;28;8824;-78
2023/08/31 06:13:30;;;;;;;;;19.40;19.40;;;;;18.87;56.20;98913.16;5089843;28;8845;-78
2023/08/31 06:15:59;;;;;;;;;18.40;17.00;;;;;18.75;56.29;98919.28;5091120;28;8865;-77
2023/08/31 06:18:28;;;;;;;;;19.60;18.80;;;;;18.98;56.03;98923.13;5090316;28;8986;-77
2023/08/31 06:20:57;;;;;;;;;22.20;20.40;;;;;19.22;55.63;98915.31;5072831;28;8846;-76
2023/08/31 06:23:27;;;;;;;;;18.40;18.00;;;;;19.50;55.17;98919.63;5047730;28;8947;-80
2023/08/31 06:25:56;;;;;;;;;16.80;16.60;;;;;19.76;54.38;98926.81;5017053;28;8869;-79
2023/08/31 06:28:25;;;;;;;;;15.80;15.00;;;;;20.05;53.50;98925.66;5050587;28;8840;-77
2023/08/31 06:30:54;;;;;;;;;17.00;15.80;;;;;20.25;52.53;98923.41;5067510;28;8852;-78
2023/08/31 06:33:22;;;;;;;;;17.40;15.00;;;;;20.45;51.95;98928.19;5067287;28;8872;-79
2023/08/31 06:35:52;;;;;;;;;19.80;18.00;;;;;20.59;51.94;98919.16;5067160;28;8867;-80
2023/08/31 06:38:21;;;;;;;;;17.60;17.60;;;;;20.75;51.95;98926.09;5050285;28;8933;-80
2023/08/31 06:40:54;;;;;;;;;15.80;15.40;;;;;20.91;51.47;98925.78;5050719;28;8860;-76
2023/08/31 06:43:23;;;;;;;;;12.40;12.40;;;;;21.08;50.36;98919.22;5048879;28;8875;-78
2023/08/31 06:45:52;;;;;;;;;16.80;16.40;;;;;21.22;49.72;98922.56;5067058;28;8974;-79
2023/08/31 06:48:21;;;;;;;;;15.00;14.80;;;;;21.31;49.00;98925.50;5050113;28;8979;-77
2023/08/31 06:50:49;;;;;;;;;17.00;17.00;;;;;21.30;48.41;98945.22;5067183;28;8848;-80
2023/08/31 06:53:18;;;;;;;;;15.60;15.60;;;;;21.42;48.32;98939.75;5050301;28;8874;-79
2023/08/31 06:55:47;;;;;;;;;17.20;16.60;;;;;21.39;47.84;98948.03;5090395;28;8840;-78
2023/08/31 06:58:17;;;;;;;;;15.40;12.40;;;;;21.19;47.65;98954.03;5096720;28;8950;-80
2023/08/31 07:00:47;;;;;;;;;12.80;12.80;;;;;20.55;50.35;98955.06;5089659;28;8830;-78
2023/08/31 07:03:15;;;;;;;;;16.00;15.80;;;;;20.82;50.10;98959.38;5120607;28;8883;-77
2023/08/31 07:05:45;;;;;;;;;17.60;17.20;;;;;20.51;50.61;98966.94;5080438;28;8855;-78
2023/08/31 07:08:14;;;;;;;;;18.00;14.60;;;;;20.72;50.18;98977.03;5069649;28;9053;-77
2023/08/31 07:10:43;;;;;;;;;14.60;12.40;;;;;20.40;50.78;98980.19;5042213;28;8843;-78
2023/08/31 07:13:11;;;;;;;;;19.60;16.60;;;;;20.64;50.19;98983.78;5048059;28;8858;-80
2023/08/31 07:15:43;;;;;;;;;17.60;17.00;;;;;21.00;50.16;98984.78;5030115;28;9630;-78
2023/08/31 07:18:12;;;;;;;;;18.20;17.20;;;;;21.20;49.54;98986.00;5049199;28;8961;-78
2023/08/31 07:20:41;;;;;;;;;11.60;10.60;;;;;21.47;48.57;98989.38;5066273;28;8885;-77
2023/08/31 07:23:10;;;;;;;;;13.00;11.40;;;;;21.68;48.43;98992.28;5033351;28;8871;-76
2023/08/31 07:25:39;;;;;;;;;13.80;12.40;;;;;21.82;47.26;98987.59;5048442;28;8877;-78
2023/08/31 07:28:08;;;;;;;;;16.40;15.80;;;;;21.81;46.55;98988.53;5029831;28;8976;-78
2023/08/31 07:30:37;;;;;;;;;18.20;16.20;;;;;21.98;47.06;98983.72;5029766;28;8862;-79
2023/08/31 07:33:08;;;;;;;;;19.20;19.20;;;;;22.05;47.21;98984.94;5046298;28;8939;-78
2023/08/31 07:35:57;;;;;;;;;15.80;14.80;;;;;22.16;47.06;98990.28;5057676;28;8831;-78
2023/08/31 07:38:28;;;;;;;;;14.80;14.80;;;;;22.26;46.20;98998.53;5109247;28;8878;-77
2023/08/31 07:40:57;;;;;;;;;18.00;15.60;;;;;22.27;46.35;98992.19;5109321;28;8851;-77
2023/08/31 07:43:26;;;;;;;;;23.40;22.40;;;;;22.37;46.23;99006.56;5099327;28;8888;-77
2023/08/31 07:45:55;;;;;;;;;20.20;20.20;;;;;22.49;46.21;99011.91;5089170;28;8942;-81
2023/08/31 07:48:25;;;;;;;;;21.60;20.80;;;;;22.57;45.81;99017.50;5037121;28;8869;-79
2023/08/31 07:50:54;;;;;;;;;20.20;20.00;;;;;22.70;45.76;99010.19;5088159;28;8863;-79
2023/08/31 07:53:23;;;;;;;;;21.60;20.00;;;;;22.82;45.51;99016.38;5100332;28;8943;-79
2023/08/31 07:55:54;;;;;;;;;19.80;19.80;;;;;22.88;45.30;99021.25;5090710;28;8931;-79
2023/08/31 07:58:23;;;;;;;;;17.80;17.80;;;;;22.80;44.87;99019.19;5081463;28;8938;-78
2023/08/31 08:00:54;;;;;;;;;13.60;12.80;;;;;22.98;44.46;99024.94;5120267;28;8836;-77
2023/08/31 08:03:23;;;;;;;;;12.20;11.60;;;;;21.53;46.90;99023.69;5098910;28;8858;-80
2023/08/31 08:05:53;;;;;;;;;13.80;13.80;;;;;21.40;47.59;99024.59;5109698;28;8848;-80
2023/08/31 08:08:22;;;;;;;;;13.60;11.60;;;;;21.25;47.49;99026.56;5089430;28;8866;-76
2023/08/31 08:10:53;;;;;;;;;24.20;22.40;;;;;21.52;49.07;99027.31;5090406;28;8893;-79
2023/08/31 08:13:22;;;;;;;;;17.00;16.80;;;;;20.80;49.54;99028.06;5109002;28;9573;-78
2023/08/31 08:15:51;;;;;;;;;12.00;12.00;;;;;20.49;50.17;99030.28;5105397;28;8915;-77
2023/08/31 08:18:20;;;;;;;;;17.20;16.80;;;;;20.78;49.94;99035.34;5036459;28;8862;-78
2023/08/31 08:20:49;;;;;;;;;32.50;29.25;;;;;20.88;51.74;99039.09;5088209;28;8842;-80
2023/08/31 08:23:21;;;;;;;;;24.80;24.80;;;;;20.20;54.50;99042.94;5090037;28;11810;-76
2023/08/31 08:25:50;;;;;;;;;29.75;28.50;;;;;20.40;54.13;99034.44;5108354;28;8851;-77
2023/08/31 08:28:19;;;;;;;;;31.00;30.25;;;;;19.76;56.12;99030.81;5108281;28;8874;-80
2023/08/31 08:30:48;;;;;;;;;30.50;28.25;;;;;19.39;57.10;99036.78;5089973;28;8852;-78
2023/08/31 08:33:17;;;;;;;;;29.25;29.00;;;;;19.95;55.19;99041.09;5052123;28;8826;-77
2023/08/31 08:35:46;;;;;;;;;27.75;27.00;;;;;19.26;57.97;99041.19;5087936;28;8853;-78
2023/08/31 08:38:13;;;;;;;;;23.20;22.60;;;;;19.57;55.90;99045.38;5087976;28;8896;-77
2023/08/31 08:40:44;;;;;;;;;26.40;23.40;;;;;19.18;56.63;99040.81;5104284;28;8858;-79
2023/08/31 08:43:14;;;;;;;;;25.80;25.80;;;;;19.39;56.35;99041.25;5055713;28;8986;-80
2023/08/31 08:45:47;;;;;;;;;19.20;19.20;;;;;18.82;57.53;99051.09;5086441;28;8861;-78
2023/08/31 08:48:17;;;;;;;;;22.00;21.00;;;;;18.72;58.21;99050.78;5035431;28;8865;-75
2023/08/31 08:50:47;;;;;;;;;24.00;24.00;;;;;18.80;58.21;99058.31;5086770;28;8960;-76
2023/08/31 08:53:15;;;;;;;;;21.00;21.00;;;;;18.63;58.74;99053.16;5036352;28;8866;-81
2023/08/31 08:55:46;;;;;;;;;27.40;26.20;;;;;18.58;59.15;99053.44;5091008;28;8929;-77
2023/08/31 08:58:24;;;;;;;;;27.20;25.60;;;;;19.05;57.96;99043.44;5110801;28;8865;-79
2023/08/31 09:00:56;;;;;;;;;19.00;18.20;;;;;19.11;56.26;99051.03;5074004;28;8859;-78
2023/08/31 09:03:25;;;;;;;;;25.60;24.00;;;;;19.61;55.14;99054.91;5109180;28;8851;-79
2023/08/31 09:05:54;;;;;;;;;25.80;25.80;;;;;20.18;54.27;99052.88;5107925;28;8994;-78
2023/08/31 09:08:27;;;;;;;;;27.00;25.80;;;;;20.05;53.06;99053.72;5096393;28;8877;-83
2023/08/31 09:10:58;;;;;;;;;23.40;21.60;;;;;19.87;53.93;99055.81;5086715;28;8884;-68
2023/08/31 09:13:28;;;;;;;;;23.20;22.40;;;;;19.92;53.88;99052.84;5090445;28;8966;-69
2023/08/31 09:15:58;;;;;;;;;22.00;21.40;;;;;19.63;55.00;99055.66;5107107;28;8860;-67
2023/08/31 09:18:29;;;;;;;;;23.20;21.00;;;;;19.21;55.08;99053.97;5099764;28;8849;-69
2023/08/31 09:20:59;;;;;;;;;20.40;19.20;;;;;19.47;53.94;99053.09;5105281;28;8863;-68
2023/08/31 09:23:28;;;;;;;;;21.60;21.20;;;;;20.10;53.36;99058.72;5111109;28;9616;-69
2023/08/31 09:25:59;;;;;;;;;28.20;27.00;;;;;20.26;53.52;99056.75;5096868;28;8849;-67
2023/08/31 09:28:29;;;;;;;;;26.00;25.00;;;;;20.70;52.75;99046.59;5099324;28;8886;-69
2023/08/31 09:31:06;;;;;;;;;24.00;23.60;;;;;21.20;51.74;99036.78;5107137;28;8880;-69
2023/08/31 09:33:36;;;;;;;;;24.20;23.80;;;;;21.44;50.21;99051.94;5053735;28;8944;-70
2023/08/31 09:36:08;;;;;;;;;20.60;19.60;;;;;21.43;49.38;99059.13;5051279;28;8887;-69
2023/08/31 09:38:43;;;;;;;;;24.00;24.00;;;;;21.43;49.41;99056.47;5110736;28;8844;-68
2023/08/31 09:41:14;;;;;;;;;24.00;24.00;;;;;20.38;52.32;99055.03;5096062;28;8849;-68
2023/08/31 09:43:44;;;;;;;;;25.80;25.80;;;;;20.77;51.23;99065.72;5108016;28;8828;-68
2023/08/31 09:46:13;;;;;;;;;24.60;24.00;;;;;21.33;50.50;99060.75;5110603;28;8951;-68
2023/08/31 09:48:43;;;;;;;;;21.60;21.40;;;;;21.73;49.12;99065.00;5110794;28;8966;-69
2023/08/31 09:51:17;;;;;;;;;21.80;21.80;;;;;21.88;48.01;99065.66;5059041;28;8848;-67
2023/08/31 09:53:50;;;;;;;;;23.80;22.80;;;;;22.28;47.84;99054.59;5054151;28;8975;-69
2023/08/31 09:56:24;;;;;;;;;24.40;20.60;;;;;21.83;47.06;99060.69;5071307;28;8924;-68
2023/08/31 09:58:53;;;;;;;;;21.80;21.80;;;;;21.78;47.55;99063.69;5074285;28;9601;-68
2023/08/31 10:01:22;;;;;;;;;24.40;24.40;;;;;22.06;47.18;99058.91;5096243;28;8962;-69
2023/08/31 10:03:58;;;;;;;;;22.40;22.00;;;;;21.62;48.13;99065.81;5097517;28;8954;-68
2023/08/31 10:06:28;;;;;;;;;23.00;22.00;;;;;22.07;47.07;99057.09;5053860;28;8988;-69
2023/08/31 10:08:58;;;;;;;;;19.60;19.00;;;;;22.47;46.73;99057.56;5104497;28;8840;-68
2023/08/31 10:11:30;;;;;;;;;13.80;13.80;;;;;22.27;44.42;99063.63;5041161;28;9682;-69
2023/08/31 10:13:59;;;;;;;;;12.40;11.40;;;;;21.04;45.63;99074.44;5097398;28;8908;-69
2023/08/31 10:16:29;;;;;;;;;14.40;13.60;;;;;21.20;46.13;99070.63;5104147;28;8874;-68
2023/08/31 10:18:58;;;;;;;;;15.20;14.40;;;;;21.38;45.55;99069.31;5090650;28;8842;-70
2023/08/31 10:21:27;;;;;;;;;12.20;12.20;;;;;20.97;47.08;99066.97;5082959;28;8823;-69
2023/08/31 10:23:56;;;;;;;;;16.00;16.00;;;;;20.96;46.04;99066.13;5056835;28;8875;-70
2023/08/31 10:26:26;;;;;;;;;14.00;14.00;;;;;20.69;46.47;99071.59;5073756;28;8868;-69
2023/08/31 10:28:57;;;;;;;;;13.00;13.00;;;;;20.83;46.37;99068.78;5099394;28;8896;-69
2023/08/31 10:31:30;;;;;;;;;12.00;11.60;;;;;20.93;45.36;99073.50;5104562;28;8844;-69
2023/08/31 10:34:00;;;;;;;;;13.40;13.40;;;;;21.28;44.88;99070.97;5109486;28;8958;-68
2023/08/31 10:36:38;;;;;;;;;18.00;16.80;;;;;21.36;44.83;99057.03;5078364;28;8830;-68
2023/08/31 10:39:11;;;;;;;;;18.40;17.80;;;;;21.72;45.36;99065.97;5054511;28;8870;-67
2023/08/31 10:41:40;;;;;;;;;12.00;12.00;;;;;21.77;44.82;99055.78;5109762;28;8858;-70
2023/08/31 10:44:21;;;;;;;;;15.20;13.80;;;;;22.02;43.64;99057.44;5109900;28;8894;-68
2023/08/31 10:46:51;;;;;;;;;13.20;13.20;;;;;21.59;44.91;99060.66;5109845;28;8998;-69
2023/08/31 10:49:21;;;;;;;;;15.00;14.00;;;;;22.28;45.01;99049.25;5097458;28;8847;-69
2023/08/31 10:51:54;;;;;;;;;15.00;15.00;;;;;22.80;43.13;99051.34;5109608;28;8836;-68
2023/08/31 10:54:25;;;;;;;;;14.20;13.40;;;;;23.09;42.88;99052.69;5089054;28;8875;-67
2023/08/31 10:56:54;;;;;;;;;17.80;17.80;;;;;22.64;41.16;99053.56;5086934;28;8830;-69
2023/08/31 10:59:26;;;;;;;;;16.20;15.00;;;;;22.58;40.30;99054.03;5057423;28;8847;-69
2023/08/31 11:01:56;;;;;;;;;13.60;13.60;;;;;22.71;40.43;99057.47;5066273;28;8917;-68
2023/08/31 11:04:27;;;;;;;;;16.20;16.00;;;;;22.90;41.98;99062.25;5049401;28;8871;-70
2023/08/31 11:07:15;;;;;;;;;12.60;12.40;;;;;23.04;40.85;99061.13;5067018;28;8879;-69
2023/08/31 11:09:45;;;;;;;;;12.00;12.00;;;;;22.30;41.73;99068.75;5016954;28;8886;-69
2023/08/31 11:12:15;;;;;;;;;14.40;13.80;;;;;21.92;43.07;99070.69;5066844;28;8874;-69
2023/08/31 11:14:45;;;;;;;;;14.00;13.60;;;;;22.08;43.26;99067.69;5048746;28;9014;-68
2023/08/31 11:17:14;;;;;;;;;15.40;14.20;;;;;21.58;43.97;99081.22;5066072;28;9032;-68
2023/08/31 11:19:43;;;;;;;;;15.00;14.00;;;;;21.45;43.98;99077.75;5048453;28;8864;-67
2023/08/31 11:22:12;;;;;;;;;15.80;15.00;;;;;21.70;43.32;99076.78;5052114;28;9014;-67
2023/08/31 11:24:41;;;;;;;;;13.40;12.80;;;;;21.56;43.53;99074.25;5081492;28;8879;-71
2023/08/31 11:27:10;;;;;;;;;14.00;13.00;;;;;21.78;43.21;99078.88;5066471;28;8886;-68
2023/08/31 11:29:40;;;;;;;;;13.80;13.80;;;;;21.73;43.00;99086.41;5067674;28;8891;-68
2023/08/31 11:32:10;;;;;;;;;18.00;18.00;;;;;21.96;42.33;99079.34;5097817;28;9936;-68
2023/08/31 11:34:42;;;;;;;;;16.40;16.40;;;;;21.97;41.91;99084.53;5064398;28;9719;-70
2023/08/31 11:37:15;;;;;;;;;17.40;17.00;;;;;21.93;42.13;99074.22;5087071;28;8886;-71